createdAt,value
2018-01-26T00:43:01.769Z,53.22
2018-01-26T00:45:27.740Z,53.45
2018-01-26T00:47:53.673Z,53.36
2018-01-26T00:50:19.621Z,53.53
2018-01-26T00:52:45.564Z,53.58
2018-01-26T00:55:11.517Z,53.37
2018-01-26T00:57:37.464Z,53.30
2018-01-26T01:00:03.401Z,53.56
2018-01-26T01:02:29.348Z,53.38
2018-01-26T01:04:55.306Z,53.28
2018-01-26T01:07:21.270Z,53.42
2018-01-26T01:09:47.214Z,53.40
2018-01-26T01:12:13.160Z,53.29
2018-01-26T01:14:39.192Z,53.16
2018-01-26T01:17:05.149Z,53.40
2018-01-26T01:19:31.088Z,53.32
2018-01-26T01:21:57.025Z,53.49
2018-01-26T01:24:22.989Z,53.27
2018-01-26T01:26:48.937Z,53.63
2018-01-26T01:29:14.884Z,53.32
2018-01-26T01:31:40.826Z,53.27
2018-01-26T01:34:06.869Z,53.41
2018-01-26T01:36:32.821Z,53.17
2018-01-26T01:38:58.764Z,53.46
2018-01-26T01:41:24.705Z,53.36
2018-01-26T01:43:50.650Z,53.20
2018-01-26T01:46:16.597Z,53.75
2018-01-26T01:48:42.544Z,53.83
2018-01-26T01:51:08.485Z,53.30
2018-01-26T01:53:34.453Z,53.25
2018-01-26T01:56:00.387Z,53.27
2018-01-26T01:58:26.362Z,53.43
2018-01-26T02:00:52.409Z,53.50
2018-01-26T02:03:18.386Z,53.44
2018-01-26T02:05:44.339Z,53.45
2018-01-26T02:08:10.313Z,53.44
2018-01-26T02:10:36.258Z,53.18
2018-01-26T02:13:02.201Z,53.01
2018-01-26T02:15:28.153Z,53.20
2018-01-26T02:17:54.097Z,53.36
2018-01-26T02:20:20.053Z,53.18
2018-01-26T02:22:45.992Z,53.29
2018-01-26T02:25:11.968Z,53.21
2018-01-26T02:27:37.907Z,53.42
2018-01-26T02:30:03.845Z,53.47
2018-01-26T02:32:29.784Z,53.40
2018-01-26T02:34:55.746Z,53.56
2018-01-26T02:37:21.694Z,53.47
2018-01-26T02:39:47.653Z,53.50
2018-01-26T02:42:13.604Z,53.47
2018-01-26T02:44:39.765Z,53.24
2018-01-26T02:47:05.669Z,53.36
2018-01-26T02:49:31.653Z,53.31
2018-01-26T02:51:57.584Z,53.25
2018-01-26T02:54:23.527Z,53.53
2018-01-26T02:56:49.522Z,53.28
2018-01-26T02:59:15.453Z,53.36
2018-01-26T03:01:41.417Z,53.40
2018-01-26T03:04:07.504Z,53.35
2018-01-26T03:06:33.465Z,53.33
2018-01-26T03:08:59.404Z,53.15
2018-01-26T03:11:25.352Z,53.45
2018-01-26T03:13:51.312Z,53.37
2018-01-26T03:16:17.245Z,53.38
2018-01-26T03:18:43.196Z,53.62
2018-01-26T03:21:09.233Z,53.40
2018-01-26T03:23:35.203Z,53.58
2018-01-26T03:26:01.136Z,53.26
2018-01-26T03:28:27.101Z,53.68
2018-01-26T03:30:53.053Z,53.56
2018-01-26T03:33:19.013Z,53.51
2018-01-26T03:35:44.961Z,53.42
2018-01-26T03:38:10.921Z,53.44
2018-01-26T03:40:36.861Z,53.48
2018-01-26T03:43:02.816Z,53.41
2018-01-26T03:45:28.765Z,53.23
2018-01-26T03:47:54.712Z,53.34
2018-01-26T03:50:20.686Z,52.81
2018-01-26T03:52:46.616Z,52.45
2018-01-26T03:55:12.700Z,52.01
2018-01-26T03:57:38.641Z,51.86
2018-01-26T04:00:04.585Z,51.80
2018-01-26T04:02:30.561Z,51.76
2018-01-26T04:04:56.528Z,51.75
2018-01-26T04:07:22.469Z,51.91
2018-01-26T04:09:48.537Z,52.10
2018-01-26T04:12:14.500Z,52.17
2018-01-26T04:14:40.464Z,52.30
2018-01-26T04:17:06.404Z,52.21
2018-01-26T04:19:32.341Z,52.33
2018-01-26T04:21:58.412Z,52.36
2018-01-26T04:24:24.349Z,52.35
2018-01-26T04:26:50.293Z,52.60
2018-01-26T04:29:16.301Z,52.71
2018-01-26T04:31:42.264Z,52.75
2018-01-26T04:34:08.209Z,52.65
2018-01-26T04:36:34.146Z,53.00
2018-01-26T04:39:00.085Z,52.86
2018-01-26T04:41:26.028Z,52.54
2018-01-26T04:43:51.967Z,52.76
2018-01-26T04:46:17.906Z,52.76
2018-01-26T04:48:43.854Z,53.00
2018-01-26T04:51:09.831Z,52.85
2018-01-26T04:53:35.773Z,52.76
2018-01-26T04:56:01.738Z,52.71
2018-01-26T04:58:27.854Z,52.81
2018-01-26T05:00:53.793Z,53.09
2018-01-26T05:03:19.734Z,52.92
2018-01-26T05:05:45.677Z,52.97
2018-01-26T05:08:11.693Z,53.01
2018-01-26T05:10:37.632Z,53.14
2018-01-26T05:13:03.577Z,53.35
2018-01-26T05:15:29.561Z,53.91
2018-01-26T05:17:55.501Z,53.54
2018-01-26T05:20:21.469Z,53.16
2018-01-26T05:22:47.493Z,53.41
2018-01-26T05:25:13.432Z,53.30
2018-01-26T05:27:39.444Z,53.45
2018-01-26T05:30:05.394Z,53.20
2018-01-26T05:32:31.368Z,53.25
2018-01-26T05:34:57.305Z,53.19
2018-01-26T05:37:23.326Z,53.31
2018-01-26T05:39:49.277Z,53.25
2018-01-26T05:42:15.221Z,53.58
2018-01-26T05:44:41.209Z,53.32
2018-01-26T05:47:07.154Z,52.99
2018-01-26T05:49:33.121Z,53.21
2018-01-26T05:51:59.064Z,53.28
2018-01-26T05:54:25.017Z,53.05
2018-01-26T05:56:50.966Z,53.22
2018-01-26T05:59:16.968Z,53.01
2018-01-26T06:01:42.917Z,53.39
2018-01-26T06:04:08.874Z,53.42
2018-01-26T06:06:34.813Z,53.34
2018-01-26T06:09:00.752Z,52.95
2018-01-26T06:11:26.717Z,52.86
2018-01-26T06:13:52.668Z,52.66
2018-01-26T06:16:18.634Z,52.89
2018-01-26T06:18:44.560Z,52.64
2018-01-26T06:21:10.537Z,52.84
2018-01-26T06:23:36.493Z,52.84
2018-01-26T06:26:02.513Z,52.94
2018-01-26T06:28:28.549Z,52.92
2018-01-26T06:30:54.566Z,52.89
2018-01-26T06:33:20.527Z,52.86
2018-01-26T06:35:46.462Z,52.84
2018-01-26T06:38:12.418Z,52.88
2018-01-26T06:40:38.384Z,53.11
2018-01-26T06:43:04.337Z,53.24
2018-01-26T06:45:30.294Z,53.05
2018-01-26T06:47:56.221Z,53.01
2018-01-26T06:50:22.163Z,53.05
2018-01-26T06:52:48.101Z,53.01
2018-01-26T06:55:14.050Z,53.05
2018-01-26T06:57:40.000Z,53.28
2018-01-26T07:00:05.950Z,53.12
2018-01-26T07:02:31.911Z,53.18
2018-01-26T07:04:57.848Z,53.22
2018-01-26T07:07:23.848Z,53.27
2018-01-26T07:09:49.782Z,53.14
2018-01-26T07:12:15.721Z,53.41
2018-01-26T07:14:41.678Z,52.97
2018-01-26T07:17:07.624Z,52.89
2018-01-26T07:19:33.572Z,52.87
2018-01-26T07:21:59.777Z,52.91
2018-01-26T07:24:25.710Z,53.05
2018-01-26T07:26:51.661Z,53.14
2018-01-26T07:29:17.632Z,53.12
2018-01-26T07:31:43.569Z,53.68
2018-01-26T07:34:09.514Z,53.30
2018-01-26T07:36:35.521Z,54.05
2018-01-26T07:39:01.471Z,53.23
2018-01-26T07:41:27.417Z,53.12
2018-01-26T07:43:53.557Z,53.31
2018-01-26T07:46:19.493Z,52.97
2018-01-26T07:48:45.433Z,54.03
2018-01-26T07:51:11.379Z,53.53
2018-01-26T07:53:37.321Z,53.15
2018-01-26T07:56:03.257Z,53.14
2018-01-26T07:58:29.217Z,53.11
2018-01-26T08:00:55.145Z,53.35
2018-01-26T08:03:21.102Z,53.16
2018-01-26T08:05:47.060Z,53.11
2018-01-26T08:08:13.134Z,53.16
2018-01-26T08:10:39.069Z,53.08
2018-01-26T08:13:05.005Z,53.02
2018-01-26T08:15:31.016Z,53.17
2018-01-26T08:17:56.957Z,53.37
2018-01-26T08:20:22.892Z,53.30
2018-01-26T08:22:48.845Z,53.06
2018-01-26T08:25:14.781Z,53.09
2018-01-26T08:27:40.746Z,53.24
2018-01-26T08:30:06.689Z,53.25
2018-01-26T08:32:32.651Z,53.15
2018-01-26T08:34:58.680Z,53.40
2018-01-26T08:37:24.593Z,53.30
2018-01-26T08:39:52.390Z,53.26
2018-01-26T08:42:18.390Z,53.27
2018-01-26T08:44:44.366Z,53.09
2018-01-26T08:47:10.299Z,53.23
2018-01-26T08:49:36.261Z,53.50
2018-01-26T08:52:02.209Z,53.22
2018-01-26T08:54:28.150Z,53.43
2018-01-26T08:56:54.161Z,53.28
2018-01-26T08:59:20.142Z,53.53
2018-01-26T09:01:46.084Z,53.31
2018-01-26T09:04:12.052Z,53.07
2018-01-26T09:06:37.988Z,53.22
2018-01-26T09:09:04.020Z,53.19
2018-01-26T09:11:29.957Z,53.17
2018-01-26T09:13:55.933Z,53.18
2018-01-26T09:16:21.910Z,53.07
2018-01-26T09:18:47.857Z,53.29
2018-01-26T09:21:13.810Z,53.25
2018-01-26T09:23:39.752Z,52.96
2018-01-26T09:26:05.705Z,53.02
2018-01-26T09:28:31.669Z,53.13
2018-01-26T09:30:57.628Z,53.11
2018-01-26T09:33:23.765Z,53.39
2018-01-26T09:35:49.713Z,53.19
2018-01-26T09:38:15.662Z,53.41
2018-01-26T09:40:41.601Z,53.07
2018-01-26T09:43:07.542Z,53.20
2018-01-26T09:45:33.496Z,52.96
2018-01-26T09:47:59.469Z,52.86
2018-01-26T09:50:25.401Z,52.99
2018-01-26T09:52:51.472Z,52.80
2018-01-26T09:55:17.422Z,52.99
2018-01-26T09:57:43.361Z,53.02
2018-01-26T10:00:09.494Z,53.06
2018-01-26T10:02:35.432Z,53.17
2018-01-26T10:05:01.382Z,53.07
2018-01-26T10:07:27.333Z,53.25
2018-01-26T10:09:53.269Z,53.10
2018-01-26T10:12:19.240Z,53.28
2018-01-26T10:14:45.170Z,53.08
2018-01-26T10:17:11.174Z,53.08
2018-01-26T10:19:37.117Z,53.20
2018-01-26T10:22:03.081Z,53.28
2018-01-26T10:24:29.122Z,53.12
2018-01-26T10:26:55.062Z,53.35
2018-01-26T10:29:21.040Z,53.01
2018-01-26T10:31:46.985Z,53.13
2018-01-26T10:34:13.044Z,52.98
2018-01-26T10:36:38.985Z,52.95
2018-01-26T10:39:04.972Z,53.01
2018-01-26T10:41:30.926Z,53.17
2018-01-26T10:43:56.866Z,53.22
2018-01-26T10:46:22.834Z,53.04
2018-01-26T10:48:48.772Z,53.24
2018-01-26T10:51:14.713Z,53.06
2018-01-26T10:53:40.689Z,53.25
2018-01-26T10:56:06.626Z,53.25
2018-01-26T10:58:32.565Z,53.12
2018-01-26T11:00:58.519Z,53.02
2018-01-26T11:03:24.464Z,53.01
2018-01-26T11:05:50.404Z,53.07
2018-01-26T11:08:16.354Z,52.96
2018-01-26T11:10:42.285Z,53.14
2018-01-26T11:13:08.230Z,53.14
2018-01-26T11:15:34.186Z,53.08
2018-01-26T11:18:00.141Z,53.30
2018-01-26T11:20:26.085Z,53.14
2018-01-26T11:22:52.022Z,53.30
2018-01-26T11:25:18.026Z,53.26
2018-01-26T11:27:43.974Z,52.94
2018-01-26T11:30:09.924Z,52.28
2018-01-26T11:32:35.966Z,51.49
2018-01-26T11:35:01.921Z,51.46
2018-01-26T11:37:27.870Z,51.04
2018-01-26T11:39:53.901Z,50.29
2018-01-26T11:42:19.838Z,50.15
2018-01-26T11:44:45.780Z,49.83
2018-01-26T11:47:11.773Z,49.42
2018-01-26T11:49:37.722Z,49.52
2018-01-26T11:52:03.762Z,49.22
2018-01-26T11:54:29.697Z,49.25
2018-01-26T11:56:55.667Z,49.46
2018-01-26T11:59:21.622Z,49.39
2018-01-26T12:01:47.632Z,48.88
2018-01-26T12:04:13.572Z,49.27
2018-01-26T12:06:39.542Z,49.07
2018-01-26T12:09:05.509Z,49.69
2018-01-26T12:11:31.566Z,50.43
2018-01-26T12:13:57.523Z,49.81
2018-01-26T12:16:23.525Z,50.39
2018-01-26T12:18:49.485Z,50.49
2018-01-26T12:21:15.494Z,51.39
2018-01-26T12:23:41.407Z,51.15
2018-01-26T12:26:07.361Z,50.55
2018-01-26T12:28:33.345Z,50.96
2018-01-26T12:30:59.290Z,50.81
2018-01-26T12:33:25.239Z,50.83
2018-01-26T12:35:51.194Z,50.80
2018-01-26T12:38:17.170Z,50.75
2018-01-26T12:40:43.162Z,51.21
2018-01-26T12:43:09.130Z,51.12
2018-01-26T12:45:35.161Z,51.21
2018-01-26T12:48:01.105Z,51.77
2018-01-26T12:50:27.082Z,52.21
2018-01-26T12:52:53.041Z,51.60
2018-01-26T12:55:19.004Z,51.29
2018-01-26T12:57:45.008Z,51.58
2018-01-26T13:00:11.130Z,51.35
2018-01-26T13:02:37.083Z,51.41
2018-01-26T13:05:03.053Z,51.57
2018-01-26T13:07:29.028Z,51.62
2018-01-26T13:09:54.997Z,51.58
2018-01-26T13:12:20.949Z,51.69
2018-01-26T13:14:46.898Z,52.04
2018-01-26T13:17:12.883Z,51.65
2018-01-26T13:19:38.846Z,51.59
2018-01-26T13:22:04.800Z,51.83
2018-01-26T13:24:30.738Z,51.85
2018-01-26T13:26:56.677Z,51.87
2018-01-26T13:29:22.621Z,51.85
2018-01-26T13:31:48.613Z,51.72
2018-01-26T13:34:14.562Z,51.94
2018-01-26T13:36:40.514Z,51.78
2018-01-26T13:39:06.463Z,52.21
2018-01-26T13:41:32.441Z,51.97
2018-01-26T13:43:58.383Z,52.18
2018-01-26T13:46:24.342Z,52.22
2018-01-26T13:48:50.289Z,52.04
2018-01-26T13:51:16.229Z,51.79
2018-01-26T13:53:42.187Z,51.92
2018-01-26T13:56:08.137Z,52.12
2018-01-26T13:58:34.289Z,52.18
2018-01-26T14:01:00.224Z,52.27
2018-01-26T14:03:26.170Z,52.11
2018-01-26T14:05:52.104Z,52.01
2018-01-26T14:08:18.062Z,52.45
2018-01-26T14:10:44.028Z,52.19
2018-01-26T14:13:09.989Z,52.20
2018-01-26T14:15:35.947Z,52.29
2018-01-26T14:18:01.887Z,52.17
2018-01-26T14:20:28.041Z,52.36
2018-01-26T14:22:53.990Z,52.42
2018-01-26T14:25:19.940Z,52.31
2018-01-26T14:27:45.897Z,52.37
2018-01-26T14:30:11.845Z,52.52
2018-01-26T14:32:37.800Z,52.34
2018-01-26T14:35:03.745Z,52.38
2018-01-26T14:37:29.785Z,52.32
2018-01-26T14:39:55.725Z,52.44
2018-01-26T14:42:21.679Z,52.30
2018-01-26T14:44:47.629Z,52.41
2018-01-26T14:47:13.596Z,52.45
2018-01-26T14:49:39.551Z,52.53
2018-01-26T14:52:05.513Z,52.40
2018-01-26T14:54:31.469Z,52.36
2018-01-26T14:56:57.408Z,52.44
2018-01-26T14:59:23.354Z,52.54
2018-01-26T15:01:49.306Z,52.70
2018-01-26T15:04:15.268Z,52.50
2018-01-26T15:06:41.220Z,52.38
2018-01-26T15:09:07.170Z,52.58
2018-01-26T15:11:33.173Z,52.48
2018-01-26T15:13:59.309Z,52.46
2018-01-26T15:16:25.253Z,52.37
2018-01-26T15:18:51.225Z,52.67
2018-01-26T15:21:17.157Z,52.36
2018-01-26T15:23:43.122Z,52.38
2018-01-26T15:26:09.066Z,52.71
2018-01-26T15:28:35.109Z,52.75
2018-01-26T15:31:01.057Z,52.34
2018-01-26T15:33:26.994Z,52.41
2018-01-26T15:35:52.945Z,52.54
2018-01-26T15:38:18.902Z,52.57
2018-01-26T15:40:44.866Z,52.44
2018-01-26T15:43:10.809Z,52.71
2018-01-26T15:45:36.793Z,52.68
2018-01-26T15:48:02.750Z,52.66
2018-01-26T15:50:28.711Z,52.67
2018-01-26T15:52:54.702Z,52.70
2018-01-26T15:55:20.654Z,52.68
2018-01-26T15:57:46.633Z,52.62
2018-01-26T16:00:12.578Z,52.55
2018-01-26T16:02:38.557Z,52.88
2018-01-26T16:05:04.502Z,52.89
2018-01-26T16:07:30.451Z,52.87
2018-01-26T16:09:56.395Z,52.76
2018-01-26T16:12:22.349Z,52.62
2018-01-26T16:14:48.314Z,52.82
2018-01-26T16:17:14.261Z,52.66
2018-01-26T16:19:40.246Z,52.51
2018-01-26T16:22:06.285Z,52.55
2018-01-26T16:24:32.233Z,52.45
2018-01-26T16:26:58.173Z,52.49
2018-01-26T16:29:24.145Z,52.46
2018-01-26T16:31:50.104Z,52.53
2018-01-26T16:34:16.045Z,52.64
2018-01-26T16:36:42.004Z,52.45
2018-01-26T16:39:08.018Z,52.77
2018-01-26T16:41:33.957Z,52.47
2018-01-26T16:43:59.897Z,52.46
2018-01-26T16:46:25.872Z,52.47
2018-01-26T16:48:51.930Z,52.46
2018-01-26T16:51:17.909Z,52.55
2018-01-26T16:53:43.901Z,52.58
2018-01-26T16:56:09.861Z,52.54
2018-01-26T16:58:35.880Z,52.89
2018-01-26T17:01:01.830Z,52.27
2018-01-26T17:03:27.949Z,52.45
2018-01-26T17:05:53.921Z,52.54
2018-01-26T17:08:19.898Z,52.40
2018-01-26T17:10:45.868Z,52.48
2018-01-26T17:13:11.909Z,52.48
2018-01-26T17:15:37.882Z,52.49
2018-01-26T17:18:03.826Z,52.48
2018-01-26T17:20:29.777Z,52.75
2018-01-26T17:22:55.743Z,52.43
2018-01-26T17:25:21.681Z,52.33
2018-01-26T17:27:47.629Z,52.34
2018-01-26T17:30:13.601Z,52.47
2018-01-26T17:32:39.545Z,52.50
2018-01-26T17:35:05.484Z,52.51
2018-01-26T17:37:31.453Z,52.33
2018-01-26T17:39:57.429Z,52.56
2018-01-26T17:42:23.375Z,52.35
2018-01-26T17:44:49.313Z,52.42
2018-01-26T17:47:15.441Z,52.25
2018-01-26T17:49:41.388Z,52.32
2018-01-26T17:52:07.346Z,52.32
2018-01-26T17:54:33.366Z,52.22
2018-01-26T17:56:59.322Z,52.97
2018-01-26T17:59:25.279Z,52.70
2018-01-26T18:01:51.234Z,52.73
2018-01-26T18:04:17.296Z,52.64
2018-01-26T18:06:43.245Z,52.72
2018-01-26T18:09:09.193Z,52.66
2018-01-26T18:11:35.138Z,52.59
2018-01-26T18:14:01.085Z,52.87
2018-01-26T18:16:27.152Z,52.79
2018-01-26T18:18:53.096Z,52.57
2018-01-26T18:21:19.070Z,52.73
2018-01-26T18:23:45.026Z,52.74
2018-01-26T18:26:10.977Z,52.57
2018-01-26T18:28:36.930Z,52.72
2018-01-26T18:31:02.885Z,52.66
2018-01-26T18:33:28.856Z,52.72
2018-01-26T18:35:54.809Z,52.62
2018-01-26T18:38:20.769Z,52.37
2018-01-26T18:40:46.798Z,52.31
2018-01-26T18:43:12.746Z,52.89
2018-01-26T18:45:38.750Z,52.65
2018-01-26T18:48:04.700Z,52.54
2018-01-26T18:50:30.656Z,52.28
2018-01-26T18:52:56.936Z,52.88
2018-01-26T18:55:23.081Z,52.39
2018-01-26T18:57:49.060Z,52.44
2018-01-26T19:00:15.003Z,52.52
2018-01-26T19:02:40.953Z,52.49
2018-01-26T19:05:06.925Z,52.68
2018-01-26T19:07:32.917Z,52.57
2018-01-26T19:09:58.950Z,52.62
2018-01-26T19:12:24.901Z,52.85
2018-01-26T19:14:50.873Z,52.67
2018-01-26T19:17:16.813Z,52.55
2018-01-26T19:19:42.773Z,52.54
2018-01-26T19:22:08.754Z,52.47
2018-01-26T19:24:34.701Z,52.44
2018-01-26T19:27:00.757Z,52.37
2018-01-26T19:29:26.729Z,52.39
2018-01-26T19:31:52.684Z,52.31
2018-01-26T19:34:18.622Z,52.54
2018-01-26T19:36:44.573Z,52.52
2018-01-26T19:39:10.508Z,52.59
2018-01-26T19:41:36.567Z,52.45
2018-01-26T19:44:02.546Z,52.57
2018-01-26T19:46:28.517Z,52.58
2018-01-26T19:48:54.461Z,52.65
2018-01-26T19:51:20.416Z,52.59
2018-01-26T19:53:46.770Z,52.62
2018-01-26T19:56:12.738Z,52.65
2018-01-26T19:58:38.694Z,52.45
2018-01-26T20:01:04.730Z,52.51
2018-01-26T20:03:30.765Z,52.36
2018-01-26T20:05:56.787Z,52.36
2018-01-26T20:08:22.733Z,52.43
2018-01-26T20:10:48.682Z,52.63
2018-01-26T20:13:14.661Z,52.54
2018-01-26T20:15:40.606Z,52.27
2018-01-26T20:18:06.589Z,52.19
2018-01-26T20:20:32.529Z,52.34
2018-01-26T20:22:58.809Z,52.39
2018-01-26T20:25:24.802Z,52.63
2018-01-26T20:27:51.073Z,52.47
2018-01-26T20:30:17.145Z,52.67
2018-01-26T20:32:43.170Z,52.58
2018-01-26T20:35:09.142Z,52.53
2018-01-26T20:37:35.138Z,52.69
2018-01-26T20:40:01.122Z,52.72
2018-01-26T20:42:27.451Z,52.39
2018-01-26T20:44:53.487Z,52.16
2018-01-26T20:47:19.649Z,52.39
2018-01-26T20:49:45.598Z,52.49
2018-01-26T20:52:11.549Z,52.37
2018-01-26T20:54:38.012Z,52.55
2018-01-26T20:57:04.239Z,52.57
2018-01-26T20:59:30.575Z,52.46
2018-01-26T21:01:56.921Z,52.63
2018-01-26T21:04:23.008Z,52.14
2018-01-26T21:06:49.277Z,52.27
2018-01-26T21:09:15.259Z,52.17
2018-01-26T21:11:41.210Z,52.13
2018-01-26T21:14:07.197Z,52.52
2018-01-26T21:16:33.160Z,52.48
2018-01-26T21:18:59.101Z,52.53
2018-01-26T21:21:25.117Z,52.62
2018-01-26T21:23:51.081Z,52.62
2018-01-26T21:26:17.054Z,52.78
2018-01-26T21:28:43.106Z,52.73
2018-01-26T21:31:09.070Z,52.93
2018-01-26T21:33:35.026Z,52.76
2018-01-26T21:36:00.963Z,52.81
2018-01-26T21:38:27.022Z,52.98
2018-01-26T21:40:52.963Z,53.01
2018-01-26T21:43:18.965Z,52.76
2018-01-26T21:45:44.905Z,53.02
2018-01-26T21:48:10.886Z,53.09
2018-01-26T21:50:36.840Z,53.07
2018-01-26T21:53:02.802Z,53.30
2018-01-26T21:55:28.753Z,53.30
2018-01-26T21:57:54.698Z,53.12
2018-01-26T22:00:20.644Z,52.97
2018-01-26T22:02:46.585Z,52.97
2018-01-26T22:05:12.567Z,53.11
2018-01-26T22:07:38.506Z,53.01
2018-01-26T22:10:04.473Z,53.22
2018-01-26T22:12:30.512Z,53.14
2018-01-26T22:14:56.486Z,53.21
2018-01-26T22:17:22.465Z,53.27
2018-01-26T22:19:48.442Z,53.18
2018-01-26T22:22:14.426Z,53.28
2018-01-26T22:24:40.376Z,53.32
2018-01-26T22:27:06.382Z,53.37
2018-01-26T22:29:32.390Z,53.49
2018-01-26T22:31:58.429Z,53.53
2018-01-26T22:34:24.536Z,53.42
2018-01-26T22:36:50.488Z,53.56
2018-01-26T22:39:16.433Z,53.45
2018-01-26T22:41:42.450Z,53.62
2018-01-26T22:44:08.401Z,53.53
2018-01-26T22:46:34.373Z,53.70
2018-01-26T22:49:00.417Z,54.06
2018-01-26T22:51:26.445Z,53.82
2018-01-26T22:53:52.426Z,53.79
2018-01-26T22:56:18.361Z,53.60
2018-01-26T22:58:44.340Z,53.67
2018-01-26T23:01:10.297Z,53.66
2018-01-26T23:03:36.237Z,53.61
2018-01-26T23:06:02.191Z,53.41
2018-01-26T23:08:28.140Z,53.88
2018-01-26T23:10:54.102Z,53.58
2018-01-26T23:13:20.110Z,53.65
2018-01-26T23:15:46.078Z,53.59
2018-01-26T23:18:12.009Z,53.65
2018-01-26T23:20:37.965Z,53.60
2018-01-26T23:23:03.914Z,53.60
2018-01-26T23:25:29.896Z,53.59
2018-01-26T23:27:55.851Z,53.58
2018-01-26T23:30:21.793Z,53.89
2018-01-26T23:32:47.746Z,53.70
2018-01-26T23:35:13.690Z,53.69
2018-01-26T23:37:39.675Z,53.70
2018-01-26T23:40:05.628Z,53.67
2018-01-26T23:42:31.692Z,53.77
2018-01-26T23:44:57.626Z,53.67
2018-01-26T23:47:23.580Z,53.68
2018-01-26T23:49:49.566Z,53.48
2018-01-26T23:52:15.516Z,53.72
2018-01-26T23:54:41.449Z,53.65
2018-01-26T23:57:07.397Z,53.66
2018-01-26T23:59:33.375Z,53.66
